| time (UTC) | temp C | wind direction | speed KPH | gust KPH | rain 1hr cm | rain 24hr cm | rain mn cm | humidity % | barometer mb |
| 20260906223042 | 17 | 37 | 8.0 | 12.9 | 0.00 | 0.10 | 0.10 | 88 | 1009.4 |
| 20260906221542 | 17 | 37 | 4.8 | 11.3 | 0.00 | 0.10 | 0.10 | 89 | 1009.2 |
| 20260906220054 | 16 | 34 | 8.0 | 17.7 | 0.00 | 0.10 | 0.10 | 90 | 1008.6 |
| 20260906214501 | 16 | 13 | 9.7 | 16.1 | 0.00 | 0.10 | 0.10 | 91 | 1008.6 |
| 20260906213018 | 16 | 360 | 9.7 | 22.5 | 0.03 | 0.10 | 0.10 | 93 | 1008.5 |
| 20260906204512 | 14 | 63 | 27.4 | 41.8 | 0.10 | 0.10 | 0.10 | 94 | 1007.9 |
| 20260906203026 | 15 | 76 | 14.5 | 24.1 | 0.08 | 0.08 | 0.08 | 94 | 1010.0 |
| 20260906201534 | 15 | 32 | 12.9 | 22.5 | 0.03 | 0.03 | 0.03 | 93 | 1010.6 |
| 20260906200049 | 15 | 360 | 12.9 | 20.9 | 0.00 | 0.00 | 0.00 | 93 | 1010.7 |
| 20260906194559 | 15 | 360 | 6.4 | 16.1 | 0.00 | 0.00 | 0.00 | 93 | 1010.0 |
| 20260906194507 | 15 | 355 | 6.4 | 16.1 | 0.00 | 0.00 | 0.00 | 93 | 1010.0 |
| 20260906193015 | 15 | 360 | 9.7 | 17.7 | 0.00 | 0.00 | 0.00 | 93 | 1009.8 |
| 20260906191531 | 15 | 9 | 12.9 | 19.3 | 0.00 | 0.00 | 0.00 | 93 | 1009.9 |
| 20260906183041 | 15 | 24 | 16.1 | 24.1 | 0.00 | 0.00 | 0.00 | 95 | 1010.1 |
| 20260906181600 | 14 | 28 | 16.1 | 24.1 | 0.00 | 0.00 | 0.00 | 95 | 1010.0 |
| 20260906143050 | 13 | 13 | 9.7 | 17.7 | 0.00 | 0.00 | 0.00 | 97 | 1011.8 |
| 20260906141556 | 13 | 32 | 11.3 | 19.3 | 0.00 | 0.00 | 0.00 | 97 | 1011.6 |
| 20260906141503 | 13 | 9 | 11.3 | 19.3 | 0.00 | 0.00 | 0.00 | 96 | 1011.6 |
| 20260906134552 | 13 | 13 | 9.7 | 19.3 | 0.00 | 0.00 | 0.00 | 97 | 1011.4 |
| 20260906133010 | 13 | 327 | 12.9 | 19.3 | 0.00 | 0.00 | 0.00 | 96 | 1011.9 |
| 20260906131520 | 13 | 355 | 9.7 | 14.5 | 0.00 | 0.00 | 0.00 | 96 | 1011.8 |
| 20260906130035 | 13 | 319 | 8.0 | 16.1 | 0.00 | 0.00 | 0.00 | 96 | 1011.8 |
| 20260906124550 | 13 | 360 | 12.9 | 17.7 | 0.00 | 0.00 | 0.00 | 96 | 1011.8 |
| 20260906123055 | 13 | 360 | 9.7 | 14.5 | 0.00 | 0.00 | 0.00 | 96 | 1012.1 |
| 20260906121515 | 13 | 9 | 8.0 | 16.1 | 0.00 | 0.00 | 0.00 | 96 | 1012.3 |
| 20260906120025 | 13 | 348 | 9.7 | 14.5 | 0.00 | 0.00 | 0.00 | 95 | 1012.4 |
| 20260906041600 | 16 | 25 | 17.7 | 25.7 | 0.00 | 0.00 | 0.00 | 85 | 1012.2 |
| 20260906041508 | 16 | 45 | 17.7 | 25.7 | 0.00 | 0.00 | 0.00 | 85 | 1012.2 |
| 20260906040026 | 16 | 5 | 12.9 | 20.9 | 0.00 | 0.00 | 0.00 | 84 | 1012.2 |
| 20260905233037 | 24 | 31 | 11.3 | 19.3 | 0.00 | 0.00 | 0.00 | 53 | 1008.7 |
| 20260905231547 | 24 | 19 | 11.3 | 19.3 | 0.00 | 0.00 | 0.00 | 53 | 1008.7 |
| 20260905230106 | 24 | 360 | 14.5 | 20.9 | 0.00 | 0.00 | 0.00 | 52 | 1008.8 |
| 20260905224615 | 24 | 360 | 8.0 | 17.7 | 0.00 | 0.00 | 0.00 | 52 | 1009.1 |